TimeCET,TemperatureF,Dew PointF,Humidity,Sea Level PressureIn,VisibilityMPH,Wind Direction,Wind SpeedMPH,Gust SpeedMPH,PrecipitationIn,Events,Conditions,WindDirDegrees,DateUTC
12:55 AM,42.8,39.2,87,29.62,4.3,NE,1.2,-,N/A,,Scattered Clouds,50,2013-01-18 23:55:00
1:00 AM,42,39,84,29.65,4,NE,1.2,,,,Mist,50,2013-01-19 00:00:00
1:55 AM,42.8,39.2,87,29.62,4.3,SE,2.3,-,N/A,,Scattered Clouds,140,2013-01-19 00:55:00
2:55 AM,42.8,39.2,87,29.59,3.7,ESE,1.2,-,N/A,,Scattered Clouds,110,2013-01-19 01:55:00
3:55 AM,44.6,41.0,87,29.56,3.7,Calm,Calm,-,N/A,,Scattered Clouds,0,2013-01-19 02:55:00
4:00 AM,45,41,81,29.59,4,Calm,Calm,,,,Mist,,2013-01-19 03:00:00
4:55 AM,44.6,41.0,87,29.56,3.7,Calm,Calm,-,N/A,,Scattered Clouds,0,2013-01-19 03:55:00
5:55 AM,46.4,42.8,87,29.53,3.1,SSE,2.3,-,N/A,Rain,Light Rain,150,2013-01-19 04:55:00
6:55 AM,46.4,42.8,87,29.50,2.5,SSE,2.3,-,N/A,Rain,Light Rain,160,2013-01-19 05:55:00
7:00 AM,46,42,83,29.52,2,SSE,2.3,,,Rain,Light Rain,160,2013-01-19 06:00:00
7:55 AM,46.4,42.8,87,29.50,1.9,SW,1.2,-,N/A,Rain,Light Rain,230,2013-01-19 06:55:00
8:55 AM,50.0,46.4,87,29.50,1.9,South,2.3,-,N/A,,Scattered Clouds,180,2013-01-19 07:55:00
9:55 AM,53.6,50.0,88,29.53,1.9,SSW,2.3,-,N/A,,Mostly Cloudy,210,2013-01-19 08:55:00
10:00 AM,54,49,79,,2,SSW,2.3,,,,Mist,210,2013-01-19 09:00:00
10:55 AM,59.0,53.6,82,29.50,3.1,South,4.6,-,N/A,,Mostly Cloudy,180,2013-01-19 09:55:00
11:55 AM,60.8,57.2,88,29.50,3.1,SSW,3.5,-,N/A,,Mostly Cloudy,210,2013-01-19 10:55:00
12:55 PM,60.8,57.2,88,29.47,2.5,SSW,5.8,-,N/A,Rain,Light Rain,200,2013-01-19 11:55:00
1:00 PM,62,58,81,29.48,2,SSW,5.8,,,Rain,Light Rain,200,2013-01-19 12:00:00
1:55 PM,62.6,57.2,82,29.44,4.3,SSW,6.9,-,N/A,,Mostly Cloudy,200,2013-01-19 12:55:00
2:55 PM,64.4,59.0,83,29.44,5.0,SSW,5.8,-,N/A,,Scattered Clouds,210,2013-01-19 13:55:00
4:00 PM,64,58,75,29.44,7,SE,4.6,,,,Partly Cloudy,130,2013-01-19 15:00:00
4:55 PM,62.6,57.2,82,29.44,6.2,East,3.5,-,N/A,,Mostly Cloudy,90,2013-01-19 15:55:00
5:55 PM,59.0,55.4,88,29.42,6.2,SE,8.1,-,N/A,,Scattered Clouds,130,2013-01-19 16:55:00
6:55 PM,59.0,55.4,88,29.44,3.7,SSE,8.1,-,N/A,Rain,Light Rain,150,2013-01-19 17:55:00
7:00 PM,59,56,85,29.44,4,SSE,8.1,,,Rain,Light Rain,150,2013-01-19 18:00:00
7:55 PM,59.0,55.4,88,29.42,4.3,ESE,11.5,-,N/A,,Mostly Cloudy,120,2013-01-19 18:55:00
8:55 PM,59.0,55.4,88,29.39,5.0,SE,12.7,-,N/A,,Mostly Cloudy,130,2013-01-19 19:55:00
9:55 PM,59.0,55.4,88,29.36,5.0,East,9.2,-,N/A,,Scattered Clouds,100,2013-01-19 20:55:00
10:00 PM,59,55,84,29.37,5,East,9.2,,,,Mist,100,2013-01-19 21:00:00
10:55 PM,59.0,55.4,88,29.36,5.0,East,3.5,-,N/A,,Scattered Clouds,90,2013-01-19 21:55:00
11:55 PM,59.0,55.4,88,29.36,6.2,East,3.5,-,N/A,,Scattered Clouds,90,2013-01-19 22:55:00